Pagina principale
METAR-TAF:

METAR-TAF

Aeroporti :

Aeroporto Internazionale di Nadi

Nadi, Figi

latitudine: 17-45S, longitudine: 177-27E, altezza: 13 m

Osservazione

Il bollettino è stato emesso 1 ora e 1 minuti fa, alle 08:00 UTC
Vento 5 kt da sud
Temperature 26°C
Umidità 84%
Pressione 1014 hPa
Visibilità 10 km o più
Poco nuvoloso ad un'altezza di 2800 ft
Nuvoloso ad un'altezza di 4800 ft

METAR: NFFN 070800Z 18005KT 9999 FEW028 BKN048 26/23 Q1014 NOSIG

Ora: 21:01 (09:01 UTC)

Previsione

Il bollettino è stato emesso 3 ore e 51 minuti fa, alle 05:10 UTC
Previsione valida dal 07 alle 06 UTC al 08 alle 06 UTC
Vento 6 kt da sud-est
Visibilità 10 km o più
Poco nuvoloso ad un'altezza di 2600 ft
Nubi sparse ad un'altezza di 10000 ft
Probabilità 40% :
Temporaneamente
dal 07 alle 18 UTC al 08 alle 06 UTC
Visibilità: 5000 m
Nuvoloso ad un'altezza di 1500 ft
rovesci di pioggia

TAF: NFFN 070510Z 0706/0806 14006KT 9999 FEW026 SCT100 PROB40 TEMPO 0718/0806 5000 SHRA BKN015

Osservazioni e previsioni meteorologiche di più di 4000 aeroporti (messaggi METAR e TAF).

Le stazioni disponibili sono rappresentate dai dischi gialli e rossi sulla carta.

Puntare il mouse per vedere il nome della stazione.

Clicca sopra per visualizzare le osservazioni e previsioni meteorologiche.

Per cambiare la mappa : fare clic sui pulsanti verdi con una croce nera per ingrandire, il pulsante verde con un trattino per diminuire, o sulla freccia verde per le mappe adiacenti.


METAR-TAF: